Omaezaki, Japan

8:43 AM JST on 三月 26, 2017 (GMT +0900)
Unnamed Road | | Change Station

高度 196 ft 34.64 °N, 138.15 °E | Updated 16 minutes ago

曇
45.3 °F
体感気温 44 °F
3.7
風 変数 風 から 北東
Gusts 8.1 Mph

今日
高い -- | 低 -- °F
--% 降水確率
昨日
高い -- | 低 -- °F
Precip. -- インチ
気圧 30.04 インチ
視程 6.2 マイル
わずか 700 ft
だいたい曇 3500 ft
曇 4500 ft
体感気温(寒さ) 44 °F
露点温度 40 °F
湿度 80%
降水 0.11 インチ
積雪深 利用不可。
5:42 AM 6:03 PM
二十六夜, 6% visible
SPECI RJNY 252330Z 04010KT 360V080 9999 FEW007 BKN035 OVC045 07/04 Q1017 RMK 1ST007 5SC035 8SC045 A3005
気圧 30.04 インチ
視程 6.2 マイル
わずか 700 ft
だいたい曇 3500 ft
曇 4500 ft
体感気温(寒さ) 44 °F
露点温度 40 °F
湿度 80%
降水 0.11 インチ
積雪深 利用不可。
5:42 AM 6:03 PM
二十六夜, 6% visible
SPECI RJNY 252330Z 04010KT 360V080 9999 FEW007 BKN035 OVC045 07/04 Q1017 RMK 1ST007 5SC035 8SC045 A3005

Get Severe Weather Alerts

Thanks for signing up!

Be on the lookout for a verification email in your inbox.

You'll start receiving the daily forecast at 8 AM.

×

10-Day Weather Forecast

No radar image for this location.
×

Almanac

天文

Mar. 26, 2017 入り
実時間
常用薄明
航海薄明
天文薄明
可視光の長さ
可照時間
Tomorrow will be .
, % of the Moon is Illuminated

今日の極値

Country Highs Country Lows

Community

WunderPhotos

Upload Photos

1,962,540 写真がアップロードされました!

WunderBlog® & News

Nearby

空気品質

  空気品質 大気質指数 汚染物質
Not available.

積雪深

Station Depth 高度

地震活動

Distance Mag. Time & Date
Minimum magnitude displayed is 2.5.

地震活動

Distance Mag. Time & Date
Minimum magnitude displayed is 2.5.

沿岸の水温

地名 気温

Stations

最寄りの気象観測所

観測所位置 温度 体感気温(寒さ) 露点温度 湿度 Precip. 高度 更新日時 タイプする